createdAt,value
2018-06-04T00:35:04.880Z,18.55
2018-06-04T00:40:31.532Z,14.43
2018-06-04T01:02:45.470Z,26.97
2018-06-04T01:08:01.933Z,26.47
2018-06-04T01:13:20.814Z,24.43
2018-06-04T01:18:40.985Z,25.47
2018-06-04T01:23:50.811Z,28.20
2018-06-04T01:29:04.836Z,30.43
2018-06-04T01:34:13.458Z,21.10
2018-06-04T01:39:25.804Z,22.13
2018-06-04T01:44:37.698Z,20.10
2018-06-04T01:49:49.409Z,22.33
2018-06-04T01:54:57.657Z,18.37
2018-06-04T02:00:10.186Z,20.63
2018-06-04T02:05:17.653Z,17.23
2018-06-04T02:10:34.236Z,16.03
2018-06-04T02:15:42.539Z,16.37
2018-06-04T02:20:51.157Z,16.97
2018-06-04T02:25:58.789Z,17.63
2018-06-04T02:31:10.702Z,19.73
2018-06-04T02:36:19.889Z,19.80
2018-06-04T02:41:31.097Z,22.20
2018-06-04T02:46:41.256Z,22.23
2018-06-04T02:51:49.878Z,22.00
2018-06-04T02:56:59.882Z,23.00
2018-06-04T03:02:06.944Z,23.57
2018-06-04T03:07:17.564Z,19.63
2018-06-04T03:12:36.312Z,18.57
2018-06-04T03:17:45.766Z,22.50
2018-06-04T03:22:55.247Z,19.27
2018-06-04T03:28:02.123Z,19.23
2018-06-04T03:33:15.536Z,19.33
2018-06-04T03:38:28.690Z,17.67
2018-06-04T03:43:37.836Z,18.20
2018-06-04T03:48:50.936Z,21.60
2018-06-04T03:54:03.605Z,17.17
2018-06-04T03:59:16.836Z,16.07
2018-06-04T04:04:23.776Z,17.47
2018-06-04T04:09:37.888Z,23.13
2018-06-04T04:14:48.111Z,27.53
2018-06-04T04:20:03.198Z,27.83
2018-06-04T04:25:10.727Z,24.53
2018-06-04T04:30:23.788Z,25.27
2018-06-04T04:35:49.870Z,29.20
2018-06-04T04:41:04.316Z,24.93
2018-06-04T04:46:17.634Z,21.03
2018-06-04T04:51:38.271Z,22.10
2018-06-04T04:56:52.475Z,23.00
2018-06-04T05:07:32.632Z,22.87
2018-06-04T05:12:43.220Z,25.70
2018-06-04T05:18:19.619Z,17.87
2018-06-04T05:29:30.312Z,22.70
2018-06-04T05:40:38.772Z,14.60
2018-06-04T05:46:36.931Z,13.53
2018-06-04T05:52:03.573Z,17.40
2018-06-04T05:57:31.688Z,18.33
2018-06-04T06:02:52.337Z,13.13
2018-06-04T06:08:10.759Z,12.40
2018-06-04T06:13:19.420Z,16.20
2018-06-04T06:18:29.362Z,15.43
2018-06-04T06:23:35.811Z,14.37
2018-06-04T06:28:51.679Z,14.93
2018-06-04T06:34:13.570Z,19.13
2018-06-04T06:39:28.593Z,22.40
2018-06-04T06:50:11.360Z,14.90
2018-06-04T07:00:46.645Z,10.20
2018-06-04T07:06:11.871Z,10.97
2018-06-04T07:11:35.263Z,10.50
2018-06-04T08:09:01.819Z,10.20
2018-06-04T08:14:23.389Z,7.30
2018-06-04T08:19:35.881Z,7.50
2018-06-04T08:25:07.149Z,7.37
2018-06-04T08:36:47.835Z,7.97
2018-06-04T13:12:19.207Z,8.63
2018-06-04T13:18:05.109Z,4.27
2018-06-04T13:29:42.509Z,11.23
2018-06-04T13:35:30.257Z,6.80
2018-06-04T13:40:46.882Z,6.63
2018-06-04T15:21:48.874Z,10.23
2018-06-04T15:32:59.920Z,8.33
2018-06-04T16:03:08.686Z,6.30
2018-06-04T16:08:38.692Z,5.17
2018-06-04T16:13:50.375Z,5.83
2018-06-04T16:18:57.064Z,8.30
2018-06-04T16:24:08.605Z,4.70
2018-06-04T16:29:21.019Z,5.20
2018-06-04T16:34:30.622Z,8.97
2018-06-04T16:39:50.173Z,8.53
2018-06-04T16:44:59.333Z,6.33
2018-06-04T16:50:23.507Z,11.60
2018-06-04T16:55:37.418Z,8.60
2018-06-04T17:00:49.444Z,9.00
2018-06-04T17:06:17.283Z,11.03
2018-06-04T17:11:26.706Z,8.53
2018-06-04T17:16:43.544Z,16.43
2018-06-04T17:21:52.177Z,25.13
2018-06-04T17:27:02.715Z,36.20
2018-06-04T17:32:12.847Z,43.43
2018-06-04T17:37:19.353Z,42.13
2018-06-04T17:42:27.588Z,50.80
2018-06-04T17:52:57.679Z,57.00
2018-06-04T17:58:08.185Z,42.73
2018-06-04T18:08:50.761Z,49.10
2018-06-04T18:19:56.255Z,36.40
2018-06-04T18:25:24.935Z,40.03
2018-06-04T18:48:08.890Z,33.00
2018-06-04T20:45:47.774Z,23.10
2018-06-04T20:51:05.421Z,27.20
2018-06-04T20:56:19.432Z,20.77
2018-06-04T21:01:35.306Z,19.53
2018-06-04T21:12:21.206Z,23.37
2018-06-04T21:23:24.390Z,20.10
2018-06-04T21:28:42.082Z,20.17
2018-06-04T21:33:58.874Z,16.73
2018-06-04T21:39:18.128Z,18.27
2018-06-04T21:44:36.806Z,17.60
2018-06-04T21:49:54.059Z,15.37
2018-06-04T21:55:12.684Z,15.30
2018-06-04T22:00:27.228Z,18.83
2018-06-04T22:05:46.133Z,18.80
2018-06-04T22:11:16.919Z,13.93
2018-06-04T22:16:52.992Z,15.20
2018-06-04T22:22:17.743Z,16.20
2018-06-04T22:38:52.017Z,16.93
2018-06-04T22:45:34.614Z,16.27
2018-06-04T22:56:38.456Z,24.27
2018-06-04T23:01:52.240Z,22.20
2018-06-04T23:07:17.380Z,24.13
2018-06-04T23:12:44.268Z,19.70
2018-06-04T23:18:04.636Z,24.27
2018-06-04T23:23:18.832Z,28.87
2018-06-04T23:28:42.599Z,25.63
2018-06-04T23:39:47.358Z,26.30
2018-06-04T23:45:13.113Z,28.37
2018-06-04T23:50:33.158Z,26.40
2018-06-04T23:56:09.329Z,27.50
